Borden Springs, Alabama
Current Conditions -  °F | °C
As of 4:53 PM on Tuesday 25 Nov 2014 (Local Time) from KANB Reporting Station
Clear Clear  
Wind Chill: 56°   Ceiling: Unl
Heat Index: 56°   Visibility: 10mi
Dew Point: 26°   Wind: 6mph
Humidity: 32%   Direction: 320°NW
Pressure: 30.05"   Gusts: NA
Location:  33.8638°N, 85.6035°W
Report Text: KANB 252253Z AUTO 32005KT 10SM CLR 13/M03 A3005 RMK AO2 SLP179 T01331033
Loading
Personal Weather Stations






























Interactive Weather Map New forecast layout! Learn more

10-Day Weather Forecast

Advertisements
Track Severe Weather on mobile